Portada
METAR-TAF:

METAR-TAF

Aeropuertos :

Fairbanks, Alaska, Estados Unidos

Aeropuerto Internacional de Fairbanks

latitud: 64-48-14N, longitud: 147-52-34W, altitud: 132 m

Observación

El informe se hizo hace 58 minutos, a las 08:53 UTC
Viento 11 kt del norte
Temperatura -2°C
Humedad 46%
Presión 1003 hPa
Visibilidad: 16.1 km
Cielo despejado

METAR: PAFA 190853Z 36011KT 10SM CLR M02/M12 A2961 RMK AO2 SLP035 T10221122 400561044 50000 $

Hora: 01:51 (09:51 UTC)

Pronóstico

El informe se hizo hace 4 horas y 25 minutos, a las 05:26 UTC
Pronóstico válido del 19 a las 06 UTC al 20 a las 12 UTC
Viento 12 kt del norte-noreste
Visibilidad: 10 km
Cielo despejado

TAF: PAFA 190526Z 1906/2012 02012KT P6SM SKC

Observaciones y pronósticos meteorológicos de más de 4000 aeropuertos (mensajes METAR y TAF).

Los puntos amarillos y rojos representan las estaciones disponibles.

Ponga el ratón en el punto deseado para ver el nombre de la estación.

Haga clic para ver las observaciones y los pronósticos meteorológicos.

Para cambiar el mapa : haga clic en los botones verdes con una cruz de color negro para hacer un zoom, en el botón verde con un guión para alejar o en las flechas verdes para mapas adyacentes.


METAR-TAF: